sensor_id;sensor_type;location;lat;lon;timestamp;pressure;altitude;pressure_sealevel;temperature;humidity
10060;BME280;5069;49.306;8.636;2023-04-19T00:01:43;101164.03;;;11.70;84.24
10060;BME280;5069;49.306;8.636;2023-04-19T00:04:45;101166.50;;;11.77;84.03
10060;BME280;5069;49.306;8.636;2023-04-19T00:07:48;101170.19;;;11.70;84.42
10060;BME280;5069;49.306;8.636;2023-04-19T00:10:49;101161.31;;;11.73;83.81
10060;BME280;5069;49.306;8.636;2023-04-19T00:13:50;101167.50;;;11.73;84.06
10060;BME280;5069;49.306;8.636;2023-04-19T00:16:52;101160.75;;;11.62;84.81
10060;BME280;5069;49.306;8.636;2023-04-19T00:19:53;101166.94;;;11.59;85.33
10060;BME280;5069;49.306;8.636;2023-04-19T00:22:55;101156.22;;;11.65;84.80
10060;BME280;5069;49.306;8.636;2023-04-19T00:26:01;101159.72;;;11.67;84.94
10060;BME280;5069;49.306;8.636;2023-04-19T00:29:04;101162.22;;;11.73;84.11
10060;BME280;5069;49.306;8.636;2023-04-19T00:32:06;101156.97;;;11.70;83.81
10060;BME280;5069;49.306;8.636;2023-04-19T00:35:08;101159.88;;;11.61;84.99
10060;BME280;5069;49.306;8.636;2023-04-19T00:38:10;101156.50;;;11.54;85.32
10060;BME280;5069;49.306;8.636;2023-04-19T00:41:11;101157.41;;;11.53;85.25
10060;BME280;5069;49.306;8.636;2023-04-19T00:44:13;101145.09;;;11.54;84.92
10060;BME280;5069;49.306;8.636;2023-04-19T00:47:15;101148.66;;;11.51;85.36
10060;BME280;5069;49.306;8.636;2023-04-19T00:50:19;101148.66;;;11.51;85.43
10060;BME280;5069;49.306;8.636;2023-04-19T00:53:20;101156.69;;;11.47;86.06
10060;BME280;5069;49.306;8.636;2023-04-19T00:56:22;101147.09;;;11.44;86.38
10060;BME280;5069;49.306;8.636;2023-04-19T00:59:26;101154.09;;;11.45;86.20
10060;BME280;5069;49.306;8.636;2023-04-19T01:02:27;101143.63;;;11.42;86.33
10060;BME280;5069;49.306;8.636;2023-04-19T01:05:29;101148.94;;;11.41;86.57
10060;BME280;5069;49.306;8.636;2023-04-19T01:08:31;101147.78;;;11.51;86.20
10060;BME280;5069;49.306;8.636;2023-04-19T01:11:32;101143.63;;;11.42;86.47
10060;BME280;5069;49.306;8.636;2023-04-19T01:14:34;101137.56;;;11.39;86.04
10060;BME280;5069;49.306;8.636;2023-04-19T01:17:35;101136.72;;;11.37;86.48
10060;BME280;5069;49.306;8.636;2023-04-19T01:20:39;101134.06;;;11.37;86.71
10060;BME280;5069;49.306;8.636;2023-04-19T01:23:40;101137.63;;;11.36;86.97
10060;BME280;5069;49.306;8.636;2023-04-19T01:26:42;101132.34;;;11.36;86.14
10060;BME280;5069;49.306;8.636;2023-04-19T01:29:43;101129.78;;;11.33;86.21
10060;BME280;5069;49.306;8.636;2023-04-19T01:32:45;101130.53;;;11.38;86.37
10060;BME280;5069;49.306;8.636;2023-04-19T01:35:46;101146.38;;;11.38;86.28
10060;BME280;5069;49.306;8.636;2023-04-19T01:38:48;101140.19;;;11.39;86.30
10060;BME280;5069;49.306;8.636;2023-04-19T01:41:50;101139.22;;;11.43;86.27
10060;BME280;5069;49.306;8.636;2023-04-19T01:44:51;101134.72;;;11.45;86.57
10060;BME280;5069;49.306;8.636;2023-04-19T01:47:53;101130.22;;;11.50;86.79
10060;BME280;5069;49.306;8.636;2023-04-19T01:50:56;101131.94;;;11.51;86.68
10060;BME280;5069;49.306;8.636;2023-04-19T01:53:57;101131.13;;;11.49;86.59
10060;BME280;5069;49.306;8.636;2023-04-19T01:56:59;101123.25;;;11.47;86.55
10060;BME280;5069;49.306;8.636;2023-04-19T02:00:01;101125.91;;;11.46;85.88
10060;BME280;5069;49.306;8.636;2023-04-19T02:03:02;101121.63;;;11.42;86.64
10060;BME280;5069;49.306;8.636;2023-04-19T02:06:04;101110.97;;;11.45;86.86
10060;BME280;5069;49.306;8.636;2023-04-19T02:09:06;101106.50;;;11.48;86.47
10060;BME280;5069;49.306;8.636;2023-04-19T02:12:08;101113.53;;;11.49;86.43
10060;BME280;5069;49.306;8.636;2023-04-19T02:15:09;101106.41;;;11.51;86.23
10060;BME280;5069;49.306;8.636;2023-04-19T02:18:11;101096.84;;;11.47;85.68
10060;BME280;5069;49.306;8.636;2023-04-19T02:21:13;101093.50;;;11.41;85.26
10060;BME280;5069;49.306;8.636;2023-04-19T02:24:15;101095.47;;;11.33;86.13
10060;BME280;5069;49.306;8.636;2023-04-19T02:27:17;101090.22;;;11.31;85.63
10060;BME280;5069;49.306;8.636;2023-04-19T02:30:19;101090.19;;;11.33;86.31
10060;BME280;5069;49.306;8.636;2023-04-19T02:33:21;101092.75;;;11.36;85.51
10060;BME280;5069;49.306;8.636;2023-04-19T02:36:22;101094.47;;;11.37;85.80
10060;BME280;5069;49.306;8.636;2023-04-19T02:39:24;101091.75;;;11.40;85.96
10060;BME280;5069;49.306;8.636;2023-04-19T02:42:25;101086.88;;;11.25;85.83
10060;BME280;5069;49.306;8.636;2023-04-19T02:45:27;101086.16;;;11.18;87.45
10060;BME280;5069;49.306;8.636;2023-04-19T02:48:28;101087.19;;;11.12;86.91
10060;BME280;5069;49.306;8.636;2023-04-19T02:51:30;101081.88;;;11.14;87.55
10060;BME280;5069;49.306;8.636;2023-04-19T02:54:32;101084.25;;;11.23;87.20
10060;BME280;5069;49.306;8.636;2023-04-19T02:57:34;101078.22;;;11.19;86.72
10060;BME280;5069;49.306;8.636;2023-04-19T03:00:36;101078.50;;;11.07;87.44
10060;BME280;5069;49.306;8.636;2023-04-19T03:03:42;101086.44;;;11.07;88.51
10060;BME280;5069;49.306;8.636;2023-04-19T03:06:44;101084.66;;;11.08;88.18
10060;BME280;5069;49.306;8.636;2023-04-19T03:09:46;101068.03;;;11.04;88.34
10060;BME280;5069;49.306;8.636;2023-04-19T03:12:48;101075.91;;;11.06;88.19
10060;BME280;5069;49.306;8.636;2023-04-19T03:15:49;101071.44;;;11.09;87.75
10060;BME280;5069;49.306;8.636;2023-04-19T03:18:55;101067.91;;;11.10;87.62
10060;BME280;5069;49.306;8.636;2023-04-19T03:22:00;101073.22;;;11.07;87.14
10060;BME280;5069;49.306;8.636;2023-04-19T03:25:04;101060.00;;;11.09;87.15
10060;BME280;5069;49.306;8.636;2023-04-19T03:28:06;101062.69;;;11.07;86.66
10060;BME280;5069;49.306;8.636;2023-04-19T03:31:33;101056.72;;;10.99;87.64
10060;BME280;5069;49.306;8.636;2023-04-19T03:34:34;101053.09;;;11.05;87.31
10060;BME280;5069;49.306;8.636;2023-04-19T03:37:36;101055.81;;;11.00;87.20
10060;BME280;5069;49.306;8.636;2023-04-19T03:40:38;101055.03;;;10.97;87.83
10060;BME280;5069;49.306;8.636;2023-04-19T03:43:42;101052.41;;;10.95;87.61
10060;BME280;5069;49.306;8.636;2023-04-19T03:46:44;101048.00;;;10.96;87.81
10060;BME280;5069;49.306;8.636;2023-04-19T03:49:49;101047.13;;;10.97;87.96
10060;BME280;5069;49.306;8.636;2023-04-19T03:52:51;101041.72;;;11.01;87.71
10060;BME280;5069;49.306;8.636;2023-04-19T03:55:52;101040.97;;;10.96;87.79
10060;BME280;5069;49.306;8.636;2023-04-19T03:58:55;101041.75;;;11.00;87.57
10060;BME280;5069;49.306;8.636;2023-04-19T04:01:56;101041.56;;;11.07;86.89
10060;BME280;5069;49.306;8.636;2023-04-19T04:04:58;101042.56;;;11.03;87.16
10060;BME280;5069;49.306;8.636;2023-04-19T04:07:59;101038.25;;;10.99;87.59
10060;BME280;5069;49.306;8.636;2023-04-19T04:11:01;101043.53;;;10.99;88.30
10060;BME280;5069;49.306;8.636;2023-04-19T04:14:03;101043.53;;;10.99;88.72
10060;BME280;5069;49.306;8.636;2023-04-19T04:17:09;101045.25;;;11.00;88.34
10060;BME280;5069;49.306;8.636;2023-04-19T04:20:11;101047.09;;;10.98;88.97
10060;BME280;5069;49.306;8.636;2023-04-19T04:23:14;101043.53;;;10.99;89.15
10060;BME280;5069;49.306;8.636;2023-04-19T04:26:21;101043.47;;;11.02;88.35
10060;BME280;5069;49.306;8.636;2023-04-19T04:29:55;101046.88;;;11.06;88.43
10060;BME280;5069;49.306;8.636;2023-04-19T04:32:57;101042.69;;;10.99;88.26
10060;BME280;5069;49.306;8.636;2023-04-19T04:36:00;101049.06;;;10.89;88.53
10060;BME280;5069;49.306;8.636;2023-04-19T04:39:05;101043.00;;;10.85;89.47
10060;BME280;5069;49.306;8.636;2023-04-19T04:42:12;101053.38;;;10.93;89.97
10060;BME280;5069;49.306;8.636;2023-04-19T04:45:13;101047.09;;;10.98;89.09
10060;BME280;5069;49.306;8.636;2023-04-19T04:48:18;101046.16;;;10.99;89.25
10060;BME280;5069;49.306;8.636;2023-04-19T04:51:20;101047.00;;;11.01;88.28
10060;BME280;5069;49.306;8.636;2023-04-19T04:54:25;101055.81;;;11.00;88.65
10060;BME280;5069;49.306;8.636;2023-04-19T04:57:28;101057.84;;;10.89;87.62
10060;BME280;5069;49.306;8.636;2023-04-19T05:00:30;101050.91;;;10.85;87.53
10060;BME280;5069;49.306;8.636;2023-04-19T05:03:36;101053.59;;;10.84;88.17
10060;BME280;5069;49.306;8.636;2023-04-19T05:06:42;101054.44;;;10.86;87.95
10060;BME280;5069;49.306;8.636;2023-04-19T05:09:45;101054.41;;;10.87;87.50
10060;BME280;5069;49.306;8.636;2023-04-19T05:12:51;101061.38;;;10.88;87.96
10060;BME280;5069;49.306;8.636;2023-04-19T05:15:53;101061.22;;;10.94;87.09
10060;BME280;5069;49.306;8.636;2023-04-19T05:18:54;101060.34;;;10.95;86.60
10060;BME280;5069;49.306;8.636;2023-04-19T05:21:58;101059.28;;;11.02;86.33
10060;BME280;5069;49.306;8.636;2023-04-19T05:24:59;101061.66;;;11.13;86.20
10060;BME280;5069;49.306;8.636;2023-04-19T05:28:02;101055.66;;;11.06;85.82
10060;BME280;5069;49.306;8.636;2023-04-19T05:31:13;101059.28;;;11.02;86.83
10060;BME280;5069;49.306;8.636;2023-04-19T05:34:25;101064.47;;;11.05;85.94
10060;BME280;5069;49.306;8.636;2023-04-19T05:37:28;101061.66;;;11.13;85.75
10060;BME280;5069;49.306;8.636;2023-04-19T05:40:30;101058.84;;;11.21;85.74
10060;BME280;5069;49.306;8.636;2023-04-19T05:43:32;101058.59;;;11.30;85.38
10060;BME280;5069;49.306;8.636;2023-04-19T05:46:34;101062.97;;;11.31;84.67
10060;BME280;5069;49.306;8.636;2023-04-19T05:49:37;101062.63;;;11.44;84.68
10060;BME280;5069;49.306;8.636;2023-04-19T05:52:56;101051.03;;;11.50;83.19
10060;BME280;5069;49.306;8.636;2023-04-19T05:55:57;101050.75;;;11.59;83.89
10060;BME280;5069;49.306;8.636;2023-04-19T05:58:59;101054.97;;;11.66;82.94
10060;BME280;5069;49.306;8.636;2023-04-19T06:02:01;101053.13;;;11.68;83.27
10060;BME280;5069;49.306;8.636;2023-04-19T06:05:03;101062.22;;;11.58;83.28
10060;BME280;5069;49.306;8.636;2023-04-19T06:08:12;101062.97;;;11.63;83.55
10060;BME280;5069;49.306;8.636;2023-04-19T06:11:16;101055.72;;;11.71;83.23
10060;BME280;5069;49.306;8.636;2023-04-19T06:14:27;101063.47;;;11.79;82.87
10060;BME280;5069;49.306;8.636;2023-04-19T06:17:30;101067.88;;;11.78;82.74
10060;BME280;5069;49.306;8.636;2023-04-19T06:20:31;101064.63;;;11.67;83.86
10060;BME280;5069;49.306;8.636;2023-04-19T06:23:33;101070.66;;;11.72;84.51
10060;BME280;5069;49.306;8.636;2023-04-19T06:26:34;101069.41;;;11.85;84.47
10060;BME280;5069;49.306;8.636;2023-04-19T06:29:36;101072.44;;;12.02;84.09
10060;BME280;5069;49.306;8.636;2023-04-19T06:32:37;101072.75;;;12.23;83.55
10060;BME280;5069;49.306;8.636;2023-04-19T06:35:39;101073.19;;;12.37;80.94
10060;BME280;5069;49.306;8.636;2023-04-19T06:38:40;101071.34;;;12.40;81.64
10060;BME280;5069;49.306;8.636;2023-04-19T06:41:44;101066.38;;;12.30;82.48
10060;BME280;5069;49.306;8.636;2023-04-19T06:44:50;101059.53;;;12.23;82.43
10060;BME280;5069;49.306;8.636;2023-04-19T06:47:51;101075.22;;;12.29;82.66
10060;BME280;5069;49.306;8.636;2023-04-19T06:50:53;101070.28;;;12.46;81.96
10060;BME280;5069;49.306;8.636;2023-04-19T06:53:54;101062.53;;;12.40;81.33
10060;BME280;5069;49.306;8.636;2023-04-19T06:56:56;101063.88;;;12.53;82.32
10060;BME280;5069;49.306;8.636;2023-04-19T06:59:57;101058.19;;;12.65;80.47
10060;BME280;5069;49.306;8.636;2023-04-19T07:02:59;101054.97;;;12.83;80.09
10060;BME280;5069;49.306;8.636;2023-04-19T07:06:01;101055.41;;;12.98;78.70
10060;BME280;5069;49.306;8.636;2023-04-19T07:09:04;101055.00;;;13.10;78.27
10060;BME280;5069;49.306;8.636;2023-04-19T07:12:06;101054.81;;;13.16;78.55
10060;BME280;5069;49.306;8.636;2023-04-19T07:15:07;101050.28;;;13.44;77.60
10060;BME280;5069;49.306;8.636;2023-04-19T07:18:09;101050.09;;;13.75;76.49
10060;BME280;5069;49.306;8.636;2023-04-19T07:21:12;101050.91;;;13.77;75.36
10060;BME280;5069;49.306;8.636;2023-04-19T07:24:13;101044.34;;;13.62;75.10
10060;BME280;5069;49.306;8.636;2023-04-19T07:27:15;101042.94;;;13.52;76.63
10060;BME280;5069;49.306;8.636;2023-04-19T07:30:17;101043.28;;;13.43;76.68
10060;BME280;5069;49.306;8.636;2023-04-19T07:33:18;101033.22;;;13.53;77.33
10060;BME280;5069;49.306;8.636;2023-04-19T07:36:20;101034.09;;;13.53;77.94
10060;BME280;5069;49.306;8.636;2023-04-19T07:39:21;101039.19;;;13.59;76.67
10060;BME280;5069;49.306;8.636;2023-04-19T07:42:23;101035.47;;;13.39;76.67
10060;BME280;5069;49.306;8.636;2023-04-19T07:45:25;101039.53;;;13.24;77.89
10060;BME280;5069;49.306;8.636;2023-04-19T07:48:27;101026.84;;;13.34;77.34
10060;BME280;5069;49.306;8.636;2023-04-19T07:51:28;101031.34;;;13.32;78.70
10060;BME280;5069;49.306;8.636;2023-04-19T07:54:29;101035.47;;;13.39;78.96
10060;BME280;5069;49.306;8.636;2023-04-19T07:57:33;101030.06;;;13.43;77.50
10060;BME280;5069;49.306;8.636;2023-04-19T08:00:35;101026.69;;;13.38;77.77
10060;BME280;5069;49.306;8.636;2023-04-19T08:03:38;101031.47;;;13.27;77.76
10060;BME280;5069;49.306;8.636;2023-04-19T08:06:40;101030.47;;;13.31;78.34
10060;BME280;5069;49.306;8.636;2023-04-19T08:09:41;101029.56;;;13.32;78.15
10060;BME280;5069;49.306;8.636;2023-04-19T08:12:43;101034.06;;;13.02;78.82
10060;BME280;5069;49.306;8.636;2023-04-19T08:16:05;101040.31;;;12.73;82.05
10060;BME280;5069;49.306;8.636;2023-04-19T08:19:09;101033.78;;;12.57;83.81
10060;BME280;5069;49.306;8.636;2023-04-19T08:22:11;101030.66;;;12.45;85.39
10060;BME280;5069;49.306;8.636;2023-04-19T08:25:12;101028.97;;;12.42;86.28
10060;BME280;5069;49.306;8.636;2023-04-19T08:28:15;101023.59;;;12.45;87.31
10060;BME280;5069;49.306;8.636;2023-04-19T08:31:17;101026.13;;;12.48;86.45
10060;BME280;5069;49.306;8.636;2023-04-19T08:34:21;101031.00;;;12.34;86.95
10060;BME280;5069;49.306;8.636;2023-04-19T08:37:22;101025.59;;;12.37;88.03
10060;BME280;5069;49.306;8.636;2023-04-19T08:40:24;101026.47;;;12.37;87.67
10060;BME280;5069;49.306;8.636;2023-04-19T08:43:29;101025.41;;;12.43;88.30
10060;BME280;5069;49.306;8.636;2023-04-19T08:46:33;101019.91;;;12.51;87.72
10060;BME280;5069;49.306;8.636;2023-04-19T08:49:35;101014.81;;;12.71;86.61
10060;BME280;5069;49.306;8.636;2023-04-19T08:52:43;101020.69;;;12.80;85.72
10060;BME280;5069;49.306;8.636;2023-04-19T08:55:57;101022.16;;;12.89;85.96
10060;BME280;5069;49.306;8.636;2023-04-19T08:59:02;101007.84;;;12.95;84.52
10060;BME280;5069;49.306;8.636;2023-04-19T09:02:18;101007.56;;;13.04;84.87
10060;BME280;5069;49.306;8.636;2023-04-19T09:05:20;100995.81;;;13.12;82.76
10060;BME280;5069;49.306;8.636;2023-04-19T09:08:27;100997.59;;;13.12;83.11
10060;BME280;5069;49.306;8.636;2023-04-19T09:11:36;100993.66;;;13.23;80.93
10060;BME280;5069;49.306;8.636;2023-04-19T09:14:43;100979.44;;;13.51;80.74
10060;BME280;5069;49.306;8.636;2023-04-19T09:18:06;100979.16;;;13.58;77.34
10060;BME280;5069;49.306;8.636;2023-04-19T09:21:08;100977.22;;;13.63;76.75
10060;BME280;5069;49.306;8.636;2023-04-19T09:24:11;100972.19;;;13.79;76.31
10060;BME280;5069;49.306;8.636;2023-04-19T09:27:15;100974.19;;;13.73;76.86
10060;BME280;5069;49.306;8.636;2023-04-19T09:30:24;100973.47;;;13.92;75.28
10060;BME280;5069;49.306;8.636;2023-04-19T09:33:36;100960.94;;;13.73;76.94
10060;BME280;5069;49.306;8.636;2023-04-19T09:36:41;100962.69;;;13.74;75.98
10060;BME280;5069;49.306;8.636;2023-04-19T09:39:42;100960.22;;;13.92;76.13
10060;BME280;5069;49.306;8.636;2023-04-19T09:42:44;100960.06;;;14.19;75.07
10060;BME280;5069;49.306;8.636;2023-04-19T09:45:52;100948.00;;;14.33;73.18
10060;BME280;5069;49.306;8.636;2023-04-19T09:48:54;100939.69;;;14.19;72.97
10060;BME280;5069;49.306;8.636;2023-04-19T09:51:56;100950.06;;;14.25;70.90
10060;BME280;5069;49.306;8.636;2023-04-19T09:54:59;100939.03;;;14.14;71.24
10060;BME280;5069;49.306;8.636;2023-04-19T09:58:06;100938.78;;;14.20;71.68
10060;BME280;5069;49.306;8.636;2023-04-19T10:01:09;100935.25;;;13.98;71.77
10060;BME280;5069;49.306;8.636;2023-04-19T10:04:17;100937.31;;;13.90;72.42
10060;BME280;5069;49.306;8.636;2023-04-19T10:07:42;100934.53;;;13.94;72.02
10060;BME280;5069;49.306;8.636;2023-04-19T10:10:45;100934.56;;;13.93;71.28
10060;BME280;5069;49.306;8.636;2023-04-19T10:13:48;100921.19;;;13.96;72.55
10060;BME280;5069;49.306;8.636;2023-04-19T10:16:52;100929.31;;;13.91;74.78
10060;BME280;5069;49.306;8.636;2023-04-19T10:20:02;100924.13;;;13.67;77.92
10060;BME280;5069;49.306;8.636;2023-04-19T10:23:07;100930.31;;;13.42;79.28
10060;BME280;5069;49.306;8.636;2023-04-19T10:26:09;100935.31;;;13.27;82.34
10060;BME280;5069;49.306;8.636;2023-04-19T10:29:11;100922.44;;;13.16;83.90
10060;BME280;5069;49.306;8.636;2023-04-19T10:32:13;100923.44;;;13.13;84.24
10060;BME280;5069;49.306;8.636;2023-04-19T10:35:19;100931.41;;;13.12;86.71
10060;BME280;5069;49.306;8.636;2023-04-19T10:38:44;100924.34;;;13.12;86.80
10060;BME280;5069;49.306;8.636;2023-04-19T10:41:57;100927.84;;;13.13;87.17
10060;BME280;5069;49.306;8.636;2023-04-19T10:45:31;100919.56;;;13.22;87.24
10060;BME280;5069;49.306;8.636;2023-04-19T10:48:34;100920.63;;;13.18;87.56
10060;BME280;5069;49.306;8.636;2023-04-19T10:51:38;100919.69;;;13.19;88.15
10060;BME280;5069;49.306;8.636;2023-04-19T10:54:43;100911.13;;;13.11;88.10
10060;BME280;5069;49.306;8.636;2023-04-19T10:58:06;100906.34;;;12.97;87.04
10060;BME280;5069;49.306;8.636;2023-04-19T11:07:49;100898.91;;;12.82;87.87
10060;BME280;5069;49.306;8.636;2023-04-19T11:10:50;100886.03;;;12.73;88.82
10060;BME280;5069;49.306;8.636;2023-04-19T11:13:55;100887.47;;;12.81;88.68
10060;BME280;5069;49.306;8.636;2023-04-19T11:16:56;100884.59;;;12.88;88.45
10060;BME280;5069;49.306;8.636;2023-04-19T11:20:06;100880.53;;;12.79;89.11
10060;BME280;5069;49.306;8.636;2023-04-19T11:23:15;100879.22;;;12.91;89.62
10060;BME280;5069;49.306;8.636;2023-04-19T11:26:18;100865.88;;;12.94;88.24
10060;BME280;5069;49.306;8.636;2023-04-19T11:29:19;100871.81;;;13.00;88.32
10060;BME280;5069;49.306;8.636;2023-04-19T11:32:21;100862.22;;;12.98;87.51
10060;BME280;5069;49.306;8.636;2023-04-19T11:35:25;100866.56;;;12.99;87.96
10060;BME280;5069;49.306;8.636;2023-04-19T11:38:27;100861.53;;;12.93;87.76
10060;BME280;5069;49.306;8.636;2023-04-19T11:41:28;100858.78;;;12.94;87.63
10060;BME280;5069;49.306;8.636;2023-04-19T11:44:30;100856.97;;;12.96;87.00
10060;BME280;5069;49.306;8.636;2023-04-19T11:47:32;100856.09;;;12.96;86.84
10060;BME280;5069;49.306;8.636;2023-04-19T11:50:38;100852.19;;;13.06;85.88
10060;BME280;5069;49.306;8.636;2023-04-19T11:53:40;100852.09;;;13.09;85.17
10060;BME280;5069;49.306;8.636;2023-04-19T11:56:58;100846.00;;;13.07;86.05
10060;BME280;5069;49.306;8.636;2023-04-19T12:00:05;100850.38;;;13.08;86.51
10060;BME280;5069;49.306;8.636;2023-04-19T12:03:14;100846.50;;;13.18;85.67
10060;BME280;5069;49.306;8.636;2023-04-19T12:06:24;100847.31;;;13.20;83.82
10060;BME280;5069;49.306;8.636;2023-04-19T12:09:27;100840.38;;;13.16;82.65
10060;BME280;5069;49.306;8.636;2023-04-19T12:12:31;100834.94;;;13.20;82.06
10060;BME280;5069;49.306;8.636;2023-04-19T12:15:43;100841.44;;;13.35;82.00
10060;BME280;5069;49.306;8.636;2023-04-19T12:18:48;100838.78;;;13.35;81.11
10060;BME280;5069;49.306;8.636;2023-04-19T12:21:50;100831.25;;;13.48;79.19
10060;BME280;5069;49.306;8.636;2023-04-19T12:24:52;100829.47;;;13.48;78.64
10060;BME280;5069;49.306;8.636;2023-04-19T12:27:54;100821.56;;;13.47;75.97
10060;BME280;5069;49.306;8.636;2023-04-19T12:30:56;100824.16;;;13.48;76.26
10060;BME280;5069;49.306;8.636;2023-04-19T12:33:58;100822.28;;;13.50;75.99
10060;BME280;5069;49.306;8.636;2023-04-19T12:36:59;100821.19;;;13.56;75.95
10060;BME280;5069;49.306;8.636;2023-04-19T12:40:01;100816.28;;;13.69;76.41
10060;BME280;5069;49.306;8.636;2023-04-19T12:43:04;100809.34;;;13.88;75.70
10060;BME280;5069;49.306;8.636;2023-04-19T12:46:06;100800.31;;;13.92;72.89
10060;BME280;5069;49.306;8.636;2023-04-19T12:49:07;100804.56;;;13.96;71.72
10060;BME280;5069;49.306;8.636;2023-04-19T12:52:09;100807.75;;;14.26;73.77
10060;BME280;5069;49.306;8.636;2023-04-19T12:55:10;100793.06;;;14.59;75.81
10060;BME280;5069;49.306;8.636;2023-04-19T12:58:12;100786.72;;;15.02;75.41
10060;BME280;5069;49.306;8.636;2023-04-19T13:01:14;100787.22;;;15.10;73.39
10060;BME280;5069;49.306;8.636;2023-04-19T13:04:16;100774.84;;;15.09;72.87
10060;BME280;5069;49.306;8.636;2023-04-19T13:07:18;100776.00;;;14.85;73.94
10060;BME280;5069;49.306;8.636;2023-04-19T13:10:20;100775.00;;;15.06;72.93
10060;BME280;5069;49.306;8.636;2023-04-19T13:13:21;100769.28;;;15.34;72.94
10060;BME280;5069;49.306;8.636;2023-04-19T13:16:23;100758.44;;;15.57;70.48
10060;BME280;5069;49.306;8.636;2023-04-19T13:19:24;100753.41;;;15.51;69.99
10060;BME280;5069;49.306;8.636;2023-04-19T13:22:26;100751.31;;;15.77;68.39
10060;BME280;5069;49.306;8.636;2023-04-19T13:25:28;100740.16;;;16.04;65.80
10060;BME280;5069;49.306;8.636;2023-04-19T13:28:29;100732.19;;;16.22;64.44
10060;BME280;5069;49.306;8.636;2023-04-19T13:31:31;100716.22;;;16.04;65.50
10060;BME280;5069;49.306;8.636;2023-04-19T13:34:33;100721.53;;;16.04;66.18
10060;BME280;5069;49.306;8.636;2023-04-19T13:37:35;100719.50;;;16.27;64.18
10060;BME280;5069;49.306;8.636;2023-04-19T13:40:36;100714.63;;;16.35;64.14
10060;BME280;5069;49.306;8.636;2023-04-19T13:43:38;100716.63;;;16.47;64.24
10060;BME280;5069;49.306;8.636;2023-04-19T13:46:40;100716.91;;;16.25;63.62
10060;BME280;5069;49.306;8.636;2023-04-19T13:49:41;100706.44;;;16.05;64.11
10060;BME280;5069;49.306;8.636;2023-04-19T13:52:43;100694.63;;;15.93;63.92
10060;BME280;5069;49.306;8.636;2023-04-19T13:55:44;100699.63;;;15.82;62.51
10060;BME280;5069;49.306;8.636;2023-04-19T13:58:46;100694.63;;;16.10;62.21
10060;BME280;5069;49.306;8.636;2023-04-19T14:01:47;100693.41;;;16.00;61.93
10060;BME280;5069;49.306;8.636;2023-04-19T14:04:48;100684.75;;;15.95;62.92
10060;BME280;5069;49.306;8.636;2023-04-19T14:07:50;100675.38;;;15.54;64.78
10060;BME280;5069;49.306;8.636;2023-04-19T14:10:52;100679.53;;;15.41;65.03
10060;BME280;5069;49.306;8.636;2023-04-19T14:13:54;100682.59;;;15.14;65.87
10060;BME280;5069;49.306;8.636;2023-04-19T14:16:56;100678.25;;;15.30;64.22
10060;BME280;5069;49.306;8.636;2023-04-19T14:19:57;100674.47;;;15.17;65.21
10060;BME280;5069;49.306;8.636;2023-04-19T14:22:59;100659.19;;;15.04;65.47
10060;BME280;5069;49.306;8.636;2023-04-19T14:26:00;100654.69;;;15.60;63.44
10060;BME280;5069;49.306;8.636;2023-04-19T14:29:02;100658.47;;;16.06;61.21
10060;BME280;5069;49.306;8.636;2023-04-19T14:32:03;100654.78;;;16.26;59.85
10060;BME280;5069;49.306;8.636;2023-04-19T14:35:25;100654.56;;;16.46;59.67
10060;BME280;5069;49.306;8.636;2023-04-19T14:38:26;100659.25;;;16.26;57.85
10060;BME280;5069;49.306;8.636;2023-04-19T14:41:28;100657.78;;;16.03;59.03
10060;BME280;5069;49.306;8.636;2023-04-19T14:44:29;100663.47;;;15.61;61.22
10060;BME280;5069;49.306;8.636;2023-04-19T14:47:30;100667.19;;;15.40;63.92
10060;BME280;5069;49.306;8.636;2023-04-19T14:50:32;100675.50;;;15.32;68.71
10060;BME280;5069;49.306;8.636;2023-04-19T14:53:33;100678.50;;;15.07;74.73
10060;BME280;5069;49.306;8.636;2023-04-19T14:56:36;100689.19;;;14.87;75.30
10060;BME280;5069;49.306;8.636;2023-04-19T14:59:38;100681.22;;;14.68;71.86
10060;BME280;5069;49.306;8.636;2023-04-19T15:02:39;100674.06;;;14.11;69.05
10060;BME280;5069;49.306;8.636;2023-04-19T15:05:41;100656.16;;;13.76;74.08
10060;BME280;5069;49.306;8.636;2023-04-19T15:08:45;100646.66;;;13.28;76.72
10060;BME280;5069;49.306;8.636;2023-04-19T15:11:47;100653.44;;;13.35;72.66
10060;BME280;5069;49.306;8.636;2023-04-19T15:14:48;100647.06;;;13.39;68.00
10060;BME280;5069;49.306;8.636;2023-04-19T15:17:51;100644.47;;;13.59;68.40
10060;BME280;5069;49.306;8.636;2023-04-19T15:20:53;100636.41;;;14.03;66.56
10060;BME280;5069;49.306;8.636;2023-04-19T15:23:54;100633.16;;;14.56;59.28
10060;BME280;5069;49.306;8.636;2023-04-19T15:26:56;100640.03;;;14.60;57.09
10060;BME280;5069;49.306;8.636;2023-04-19T15:29:59;100639.56;;;14.52;58.09
10060;BME280;5069;49.306;8.636;2023-04-19T15:33:00;100637.53;;;14.38;58.08
10060;BME280;5069;49.306;8.636;2023-04-19T15:36:02;100634.00;;;14.37;61.24
10060;BME280;5069;49.306;8.636;2023-04-19T15:39:04;100639.59;;;14.30;59.69
10060;BME280;5069;49.306;8.636;2023-04-19T15:42:06;100641.97;;;14.37;59.04
10060;BME280;5069;49.306;8.636;2023-04-19T15:45:07;100629.50;;;14.39;59.61
10060;BME280;5069;49.306;8.636;2023-04-19T15:48:09;100634.38;;;14.48;60.15
10060;BME280;5069;49.306;8.636;2023-04-19T15:51:13;100630.63;;;14.53;57.29
10060;BME280;5069;49.306;8.636;2023-04-19T15:54:15;100632.53;;;14.51;57.67
10060;BME280;5069;49.306;8.636;2023-04-19T15:57:17;100635.66;;;14.40;58.36
10060;BME280;5069;49.306;8.636;2023-04-19T16:00:19;100641.31;;;14.12;58.65
10060;BME280;5069;49.306;8.636;2023-04-19T16:03:21;100638.41;;;13.98;59.29
10060;BME280;5069;49.306;8.636;2023-04-19T16:06:23;100641.97;;;13.97;58.39
10060;BME280;5069;49.306;8.636;2023-04-19T16:09:25;100642.09;;;14.14;56.86
10060;BME280;5069;49.306;8.636;2023-04-19T16:12:27;100651.59;;;13.99;59.23
10060;BME280;5069;49.306;8.636;2023-04-19T16:15:28;100659.34;;;14.04;61.64
10060;BME280;5069;49.306;8.636;2023-04-19T16:18:30;100650.47;;;14.05;62.46